createdAt,value
2023-04-15T00:00:56.472Z,93.21
2023-04-15T00:03:23.462Z,92.96
2023-04-15T00:05:50.441Z,93.25
2023-04-15T00:08:17.074Z,93.51
2023-04-15T00:10:43.700Z,93.58
2023-04-15T00:13:10.299Z,93.43
2023-04-15T00:15:38.285Z,93.50
2023-04-15T00:18:04.881Z,93.51
2023-04-15T00:20:31.504Z,93.51
2023-04-15T00:22:58.276Z,93.02
2023-04-15T00:25:25.003Z,93.22
2023-04-15T00:27:51.737Z,93.10
2023-04-15T00:30:18.291Z,93.14
2023-04-15T00:32:46.524Z,93.05
2023-04-15T00:35:13.118Z,93.26
2023-04-15T00:37:39.693Z,92.96
2023-04-15T00:40:12.070Z,93.12
2023-04-15T00:42:39.498Z,93.03
2023-04-15T00:45:06.964Z,93.18
2023-04-15T00:47:35.243Z,92.87
2023-04-15T00:50:03.517Z,92.87
2023-04-15T00:52:30.092Z,92.89
2023-04-15T00:54:56.774Z,92.83
2023-04-15T00:57:23.439Z,92.80
2023-04-15T00:59:52.346Z,92.96
2023-04-15T01:02:19.168Z,93.03
2023-04-15T01:04:45.836Z,92.66
2023-04-15T01:07:13.893Z,92.85
2023-04-15T01:09:40.705Z,92.75
2023-04-15T01:12:07.978Z,92.88
2023-04-15T01:14:34.643Z,93.16
2023-04-15T01:17:01.305Z,92.78
2023-04-15T01:19:28.336Z,93.06
2023-04-15T01:21:55.382Z,92.79
2023-04-15T01:24:26.054Z,92.88
2023-04-15T01:26:54.117Z,92.84
2023-04-15T01:29:20.988Z,93.19
2023-04-15T01:31:51.862Z,92.79
2023-04-15T01:34:19.247Z,93.04
2023-04-15T01:36:45.900Z,92.78
2023-04-15T01:39:12.598Z,92.67
2023-04-15T01:41:39.363Z,92.72
2023-04-15T01:44:07.698Z,92.65
2023-04-15T01:46:34.669Z,92.80
2023-04-15T01:49:01.649Z,92.67
2023-04-15T01:51:28.621Z,92.51
2023-04-15T01:53:55.354Z,92.76
2023-04-15T01:56:21.986Z,92.54
2023-04-15T01:58:48.550Z,92.55
2023-04-15T02:01:16.580Z,92.44
2023-04-15T02:03:43.322Z,92.55
2023-04-15T02:06:10.003Z,92.57
2023-04-15T02:08:36.627Z,92.31
2023-04-15T02:11:03.277Z,92.53
2023-04-15T02:13:29.906Z,92.52
2023-04-15T02:15:57.201Z,92.46
2023-04-15T02:18:25.243Z,92.42
2023-04-15T02:20:52.611Z,92.49
2023-04-15T02:23:19.355Z,92.44
2023-04-15T02:25:53.313Z,92.31
2023-04-15T02:28:20.941Z,92.54
2023-04-15T02:30:48.430Z,92.61
2023-04-15T02:33:15.126Z,92.62
2023-04-15T02:35:43.072Z,92.87
2023-04-15T02:38:09.652Z,92.84
2023-04-15T02:40:36.233Z,92.78
2023-04-15T02:43:02.969Z,92.83
2023-04-15T02:45:29.547Z,92.85
2023-04-15T02:47:56.160Z,92.70
2023-04-15T02:50:22.757Z,92.88
2023-04-15T02:52:51.147Z,92.87
2023-04-15T02:55:17.731Z,92.69
2023-04-15T02:57:44.310Z,92.96
2023-04-15T03:00:12.209Z,92.74
2023-04-15T03:02:39.398Z,92.83
2023-04-15T03:05:07.183Z,92.85
2023-04-15T03:07:33.778Z,92.85
2023-04-15T03:10:01.935Z,92.64
2023-04-15T03:12:28.543Z,92.86
2023-04-15T03:14:55.137Z,92.62
2023-04-15T03:17:21.717Z,92.69
2023-04-15T03:19:48.387Z,92.95
2023-04-15T03:22:15.296Z,93.08
2023-04-15T03:24:41.921Z,93.07
2023-04-15T03:27:09.900Z,93.07
2023-04-15T03:29:36.553Z,93.01
2023-04-15T03:32:03.373Z,92.98
2023-04-15T03:34:30.024Z,92.74
2023-04-15T03:36:56.661Z,93.06
2023-04-15T03:39:23.256Z,93.15
2023-04-15T03:41:49.836Z,93.18
2023-04-15T03:44:18.055Z,93.37
2023-04-15T03:46:44.837Z,92.97
2023-04-15T03:49:11.454Z,93.35
2023-04-15T03:51:38.129Z,93.09
2023-04-15T03:54:04.784Z,93.29
2023-04-15T03:56:31.472Z,93.10
2023-04-15T03:58:58.060Z,93.24
2023-04-15T04:01:26.090Z,93.30
2023-04-15T04:03:52.881Z,93.26
2023-04-15T04:06:19.970Z,93.36
2023-04-15T04:08:46.615Z,93.36
2023-04-15T04:11:13.237Z,93.44
2023-04-15T04:13:40.089Z,93.58
2023-04-15T04:16:07.385Z,93.63
2023-04-15T04:18:35.621Z,93.63
2023-04-15T04:21:02.445Z,93.64
2023-04-15T04:23:29.047Z,93.57
2023-04-15T04:25:55.685Z,93.79
2023-04-15T04:28:22.290Z,93.66
2023-04-15T04:30:48.996Z,93.89
2023-04-15T04:33:15.690Z,93.88
2023-04-15T04:35:43.699Z,93.58
2023-04-15T04:38:10.447Z,93.83
2023-04-15T04:40:37.093Z,93.54
2023-04-15T04:43:03.702Z,93.57
2023-04-15T04:45:30.325Z,93.67
2023-04-15T04:47:56.963Z,93.95
2023-04-15T04:50:23.544Z,93.75
2023-04-15T04:52:51.545Z,93.63
2023-04-15T04:55:18.261Z,93.55
2023-04-15T04:57:45.096Z,93.89
2023-04-15T05:00:12.482Z,93.75
2023-04-15T05:02:39.178Z,93.75
2023-04-15T05:05:06.996Z,94.14
2023-04-15T05:07:33.865Z,93.93
2023-04-15T05:10:01.875Z,94.00
2023-04-15T05:12:28.718Z,93.78
2023-04-15T05:14:55.642Z,93.92
2023-04-15T05:17:22.315Z,93.85
2023-04-15T05:19:48.922Z,93.93
2023-04-15T05:22:15.744Z,93.79
2023-04-15T05:24:42.366Z,93.84
2023-04-15T05:27:10.366Z,93.82
2023-04-15T05:29:37.152Z,93.65
2023-04-15T05:32:03.941Z,93.60
2023-04-15T05:34:30.504Z,93.68
2023-04-15T05:36:57.143Z,93.74
2023-04-15T05:39:23.775Z,93.92
2023-04-15T05:41:50.391Z,93.63
2023-04-15T05:44:18.436Z,93.94
2023-04-15T05:46:45.003Z,93.73
2023-04-15T05:49:11.634Z,93.60
2023-04-15T05:51:38.390Z,93.60
2023-04-15T05:54:05.020Z,93.62
2023-04-15T05:56:31.862Z,93.51
2023-04-15T05:58:58.586Z,93.41
2023-04-15T06:01:26.564Z,93.43
2023-04-15T06:03:53.543Z,93.54
2023-04-15T06:06:20.255Z,93.68
2023-04-15T06:08:46.899Z,93.45
2023-04-15T06:11:14.497Z,93.35
2023-04-15T06:13:41.172Z,93.45
2023-04-15T06:16:07.955Z,93.70
2023-04-15T06:18:36.008Z,93.31
2023-04-15T06:21:02.791Z,93.04
2023-04-15T06:23:29.603Z,92.67
2023-04-15T06:25:56.229Z,92.30
2023-04-15T06:28:22.967Z,92.58
2023-04-15T06:30:49.623Z,92.31
2023-04-15T06:33:16.225Z,92.53
2023-04-15T06:35:44.208Z,91.98
2023-04-15T06:38:10.789Z,91.47
2023-04-15T06:40:37.398Z,91.50
2023-04-15T06:43:04.090Z,91.22
2023-04-15T06:45:30.730Z,90.90
2023-04-15T06:47:57.485Z,91.06
2023-04-15T06:50:24.079Z,89.93
2023-04-15T06:52:52.432Z,90.09
2023-04-15T06:55:19.151Z,89.34
2023-04-15T06:57:45.918Z,89.79
2023-04-15T07:00:13.703Z,89.88
2023-04-15T07:02:40.559Z,89.00
2023-04-15T07:05:07.631Z,89.10
2023-04-15T07:07:34.259Z,88.59
2023-04-15T07:10:03.953Z,87.74
2023-04-15T07:12:30.679Z,87.30
2023-04-15T07:14:57.549Z,87.33
2023-04-15T07:17:24.406Z,87.01
2023-04-15T07:19:51.017Z,86.72
2023-04-15T07:22:17.616Z,85.92
2023-04-15T07:24:44.288Z,85.56
2023-04-15T07:27:12.257Z,85.13
2023-04-15T07:29:38.918Z,86.08
2023-04-15T07:32:06.034Z,85.22
2023-04-15T07:34:32.833Z,85.66
2023-04-15T07:36:59.667Z,85.33
2023-04-15T07:39:26.348Z,85.84
2023-04-15T07:41:53.067Z,85.72
2023-04-15T07:44:21.104Z,84.35
2023-04-15T07:46:48.394Z,84.32
2023-04-15T07:49:15.612Z,85.09
2023-04-15T07:51:42.681Z,83.14
2023-04-15T07:54:11.685Z,83.24
2023-04-15T07:56:40.333Z,83.70
2023-04-15T07:59:07.249Z,83.62
2023-04-15T08:01:35.406Z,84.03
2023-04-15T08:04:02.342Z,83.02
2023-04-15T08:06:29.362Z,83.48
2023-04-15T08:08:56.080Z,83.36
2023-04-15T08:11:23.822Z,83.76
2023-04-15T08:13:50.533Z,83.11
2023-04-15T08:16:19.491Z,83.59
2023-04-15T08:18:48.384Z,83.77
2023-04-15T08:21:15.860Z,83.60
2023-04-15T08:23:43.115Z,83.15
2023-04-15T08:26:09.882Z,82.88
2023-04-15T08:28:38.812Z,82.37
2023-04-15T08:31:05.878Z,83.42
2023-04-15T08:33:32.638Z,83.33
2023-04-15T08:36:00.980Z,83.47
2023-04-15T08:38:27.772Z,83.70
2023-04-15T08:40:57.222Z,83.14
2023-04-15T08:43:27.721Z,82.93
2023-04-15T08:45:55.293Z,83.07
2023-04-15T08:48:22.232Z,82.96
2023-04-15T08:50:49.386Z,83.08
2023-04-15T08:53:18.430Z,82.87
2023-04-15T08:55:46.941Z,82.65
2023-04-15T08:58:14.602Z,82.88
2023-04-15T09:00:42.184Z,82.69
2023-04-15T09:03:09.552Z,82.80
2023-04-15T09:05:37.237Z,83.12
2023-04-15T09:08:04.987Z,83.73
2023-04-15T09:10:33.721Z,84.07
2023-04-15T09:13:01.022Z,83.09
2023-04-15T09:15:28.191Z,82.65
2023-04-15T09:17:55.458Z,83.00
2023-04-15T09:20:22.822Z,82.67
2023-04-15T09:22:50.868Z,82.55
2023-04-15T09:25:31.131Z,82.33
2023-04-15T09:28:01.876Z,82.63
2023-04-15T09:30:29.458Z,83.19
2023-04-15T09:32:57.698Z,81.97
2023-04-15T09:35:26.286Z,82.10
2023-04-15T09:37:54.067Z,81.85
2023-04-15T09:40:34.272Z,82.39
2023-04-15T09:43:03.264Z,81.36
2023-04-15T09:45:30.124Z,82.09
2023-04-15T09:47:59.223Z,82.07
2023-04-15T09:50:28.459Z,81.72
2023-04-15T09:52:55.677Z,82.06
2023-04-15T09:55:22.808Z,81.65
2023-04-15T09:57:49.486Z,81.45
2023-04-15T10:00:17.862Z,81.53
2023-04-15T10:02:48.149Z,82.08
2023-04-15T10:05:15.810Z,82.04
2023-04-15T10:07:42.766Z,82.78
2023-04-15T10:10:10.794Z,81.92
2023-04-15T10:12:38.531Z,82.18
2023-04-15T10:15:06.872Z,82.08
2023-04-15T10:17:36.989Z,82.29
2023-04-15T10:20:05.197Z,82.12
2023-04-15T10:22:32.907Z,82.34
2023-04-15T10:25:00.292Z,83.05
2023-04-15T10:27:28.400Z,83.08
2023-04-15T10:29:56.678Z,82.90
2023-04-15T10:32:25.235Z,82.67
2023-04-15T10:34:54.827Z,83.50
2023-04-15T10:37:22.387Z,83.67
2023-04-15T10:39:49.133Z,83.84
2023-04-15T10:42:17.887Z,83.66
2023-04-15T10:44:48.585Z,84.19
2023-04-15T10:47:17.378Z,84.97
2023-04-15T10:49:46.466Z,85.00
2023-04-15T10:52:17.620Z,84.67
2023-04-15T10:54:45.439Z,85.30
2023-04-15T10:57:21.780Z,85.27
2023-04-15T11:00:12.157Z,85.39
2023-04-15T11:02:41.801Z,84.97
2023-04-15T11:05:10.506Z,85.40
2023-04-15T11:07:51.225Z,85.59
2023-04-15T11:10:51.512Z,84.49
2023-04-15T11:13:21.542Z,84.93
2023-04-15T11:15:49.608Z,85.14
2023-04-15T11:18:18.684Z,85.17
2023-04-15T11:20:46.866Z,85.47
2023-04-15T11:23:15.882Z,85.61
2023-04-15T11:25:44.220Z,84.77
2023-04-15T11:28:12.321Z,85.09
2023-04-15T11:30:40.143Z,85.05
2023-04-15T11:33:08.646Z,84.60
2023-04-15T11:35:35.960Z,85.74
2023-04-15T11:38:05.737Z,85.16
2023-04-15T11:40:34.020Z,85.47
2023-04-15T11:43:08.183Z,86.06
2023-04-15T11:45:35.752Z,85.80
2023-04-15T11:48:07.373Z,85.91
2023-04-15T11:50:34.454Z,86.58
2023-04-15T11:53:03.324Z,86.37
2023-04-15T11:55:31.192Z,86.63
2023-04-15T11:58:13.941Z,86.44
2023-04-15T12:00:47.559Z,87.00
2023-04-15T12:03:19.875Z,86.26
2023-04-15T12:06:07.240Z,86.26
2023-04-15T12:08:57.064Z,86.65
2023-04-15T12:11:33.074Z,86.56
2023-04-15T12:14:05.693Z,86.44
2023-04-15T12:16:36.990Z,86.80
2023-04-15T12:19:16.798Z,86.89
2023-04-15T12:21:46.335Z,87.09
2023-04-15T12:24:13.301Z,86.84
2023-04-15T12:26:44.969Z,87.09
2023-04-15T12:29:14.364Z,87.19
2023-04-15T12:31:51.127Z,87.24
2023-04-15T12:34:19.234Z,87.71
2023-04-15T12:36:45.995Z,87.78
2023-04-15T12:39:13.463Z,88.16
2023-04-15T12:41:40.116Z,88.43
2023-04-15T12:44:07.104Z,88.50
2023-04-15T12:46:36.410Z,88.78
2023-04-15T12:49:04.369Z,88.37
2023-04-15T12:51:31.036Z,88.26
2023-04-15T12:53:57.892Z,88.41
2023-04-15T12:56:24.596Z,87.80
2023-04-15T12:58:51.387Z,87.93
2023-04-15T13:01:18.096Z,87.64
2023-04-15T13:03:46.425Z,88.16
2023-04-15T13:06:13.343Z,88.17
2023-04-15T13:08:42.732Z,87.59
2023-04-15T13:11:14.805Z,87.75
2023-04-15T13:13:41.488Z,87.74
2023-04-15T13:16:08.342Z,86.64
2023-04-15T13:18:35.158Z,87.35
2023-04-15T13:21:05.234Z,87.41
2023-04-15T13:23:32.073Z,87.68
2023-04-15T13:25:58.880Z,87.18
2023-04-15T13:28:26.346Z,87.23
2023-04-15T13:30:53.769Z,86.37
2023-04-15T13:33:21.010Z,86.34
2023-04-15T13:35:47.813Z,86.27
2023-04-15T13:38:15.971Z,86.32
2023-04-15T13:40:42.664Z,86.59
2023-04-15T13:43:09.312Z,86.67
2023-04-15T13:45:36.116Z,86.82
2023-04-15T13:48:02.998Z,86.95
2023-04-15T13:50:29.635Z,86.96
2023-04-15T13:52:56.701Z,86.95
2023-04-15T13:55:26.368Z,88.22
2023-04-15T13:57:53.964Z,87.49
2023-04-15T14:00:20.597Z,87.78
2023-04-15T14:02:47.477Z,88.34
2023-04-15T14:05:14.366Z,87.80
2023-04-15T14:07:41.063Z,87.79
2023-04-15T14:10:08.800Z,87.91
2023-04-15T14:12:36.832Z,87.83
2023-04-15T14:15:03.986Z,88.01
2023-04-15T14:17:30.628Z,88.18
2023-04-15T14:19:57.286Z,87.84
2023-04-15T14:22:23.907Z,88.56
2023-04-15T14:24:50.553Z,88.28
2023-04-15T14:27:17.329Z,88.02
2023-04-15T14:29:45.332Z,88.22
2023-04-15T14:32:12.887Z,87.85
2023-04-15T14:34:39.788Z,88.49
2023-04-15T14:37:06.543Z,88.48
2023-04-15T14:39:33.305Z,88.38
2023-04-15T14:41:59.908Z,88.74
2023-04-15T14:44:26.608Z,89.15
2023-04-15T14:46:54.745Z,89.21
2023-04-15T14:49:21.502Z,89.39
2023-04-15T14:51:48.111Z,89.56
2023-04-15T14:54:15.361Z,89.10
2023-04-15T14:56:41.962Z,89.54
2023-04-15T14:59:08.873Z,89.50
2023-04-15T15:01:35.623Z,89.74
2023-04-15T15:04:04.229Z,89.77
2023-04-15T15:06:31.065Z,90.29
2023-04-15T15:08:57.714Z,90.68
2023-04-15T15:11:24.631Z,90.60
2023-04-15T15:13:51.396Z,90.18
2023-04-15T15:16:18.346Z,90.38
2023-04-15T15:18:45.190Z,90.24
2023-04-15T15:21:13.348Z,90.57
2023-04-15T15:23:39.979Z,90.53
2023-04-15T15:26:06.699Z,90.75
2023-04-15T15:28:34.221Z,90.71
2023-04-15T15:31:00.907Z,90.53
2023-04-15T15:33:29.020Z,90.79
2023-04-15T15:35:58.202Z,90.50
2023-04-15T15:38:26.290Z,90.82
2023-04-15T15:40:52.982Z,90.94
2023-04-15T15:43:19.605Z,90.74
2023-04-15T15:45:46.382Z,91.13
2023-04-15T15:48:13.078Z,90.99
2023-04-15T15:50:39.784Z,90.69
2023-04-15T15:53:06.422Z,90.97
2023-04-15T15:55:34.669Z,91.37
2023-04-15T15:58:01.316Z,91.52
2023-04-15T16:00:28.003Z,91.47
2023-04-15T16:03:06.972Z,91.39
2023-04-15T16:05:34.513Z,91.31
2023-04-15T16:08:01.159Z,91.87
2023-04-15T16:10:27.989Z,91.12
2023-04-15T16:12:56.169Z,91.50
2023-04-15T16:15:23.011Z,91.09
2023-04-15T16:17:49.814Z,91.11
2023-04-15T16:20:16.744Z,91.38
2023-04-15T16:22:43.652Z,91.46
2023-04-15T16:25:10.377Z,91.29
2023-04-15T16:27:54.074Z,91.48
2023-04-15T16:30:26.355Z,92.03
2023-04-15T16:32:53.281Z,92.00
2023-04-15T16:35:19.996Z,91.83
2023-04-15T16:37:46.638Z,91.44
2023-04-15T16:40:13.477Z,91.69
2023-04-15T16:42:40.185Z,91.58
2023-04-15T16:45:07.476Z,91.82
2023-04-15T16:47:35.651Z,92.08
2023-04-15T16:50:02.336Z,91.55
2023-04-15T16:52:29.241Z,91.51
2023-04-15T16:54:55.892Z,91.67
2023-04-15T16:57:22.664Z,91.99
2023-04-15T16:59:51.624Z,92.02
2023-04-15T17:02:18.611Z,91.87
2023-04-15T17:04:46.667Z,92.07
2023-04-15T17:07:13.820Z,92.22
2023-04-15T17:09:40.582Z,92.52
2023-04-15T17:12:07.722Z,91.97
2023-04-15T17:14:34.444Z,92.09
2023-04-15T17:17:04.133Z,92.04
2023-04-15T17:19:30.727Z,92.40
2023-04-15T17:21:59.689Z,92.23
2023-04-15T17:24:26.529Z,92.42
2023-04-15T17:26:54.077Z,92.40
2023-04-15T17:29:20.779Z,92.51
2023-04-15T17:31:47.499Z,92.54
2023-04-15T17:34:15.889Z,92.73
2023-04-15T17:36:42.961Z,92.81
2023-04-15T17:39:11.050Z,93.17
2023-04-15T17:41:37.782Z,93.05
2023-04-15T17:44:04.713Z,93.03
2023-04-15T17:46:31.602Z,93.24
2023-04-15T17:48:58.310Z,93.40
2023-04-15T17:51:25.130Z,93.32
2023-04-15T17:53:51.797Z,93.32
2023-04-15T17:56:19.827Z,93.18
2023-04-15T17:58:46.681Z,93.51
2023-04-15T18:01:13.618Z,93.63
2023-04-15T18:03:40.469Z,93.59
2023-04-15T18:06:07.223Z,94.07
2023-04-15T18:08:33.926Z,94.02
2023-04-15T18:11:00.572Z,93.66
2023-04-15T18:13:28.564Z,94.16
2023-04-15T18:15:55.508Z,93.78
2023-04-15T18:18:22.133Z,94.30
2023-04-15T18:20:48.759Z,94.09
2023-04-15T18:23:15.486Z,94.25
2023-04-15T18:25:42.146Z,94.34
2023-04-15T18:28:09.066Z,94.27
2023-04-15T18:30:37.099Z,94.12
2023-04-15T18:33:03.986Z,94.58
2023-04-15T18:35:30.643Z,94.31
2023-04-15T18:37:57.533Z,94.15
2023-04-15T18:40:24.329Z,94.06
2023-04-15T18:42:50.966Z,94.29
2023-04-15T18:45:17.780Z,94.00
2023-04-15T18:47:46.145Z,94.16
2023-04-15T18:50:12.901Z,94.29
2023-04-15T18:52:40.732Z,94.10
2023-04-15T18:55:07.735Z,94.19
2023-04-15T18:57:34.762Z,94.33
2023-04-15T19:00:01.661Z,94.31
2023-04-15T19:02:28.402Z,94.22
2023-04-15T19:04:56.550Z,94.57
2023-04-15T19:07:23.190Z,94.27
2023-04-15T19:09:49.864Z,94.29
2023-04-15T19:12:16.675Z,94.50
2023-04-15T19:14:43.246Z,94.57
2023-04-15T19:17:09.829Z,94.52
2023-04-15T19:19:36.680Z,94.62
2023-04-15T19:22:04.775Z,94.68
2023-04-15T19:24:33.034Z,94.27
2023-04-15T19:26:59.953Z,94.76
2023-04-15T19:29:26.642Z,94.30
2023-04-15T19:31:54.437Z,94.44
2023-04-15T19:34:21.097Z,94.29
2023-04-15T19:36:47.712Z,94.11
2023-04-15T19:39:15.779Z,94.36
2023-04-15T19:41:42.435Z,94.12
2023-04-15T19:44:09.045Z,93.96
2023-04-15T19:46:35.835Z,94.42
2023-04-15T19:49:02.820Z,94.36
2023-04-15T19:51:29.734Z,93.96
2023-04-15T19:53:56.384Z,94.04
2023-04-15T19:56:24.388Z,94.03
2023-04-15T19:58:51.089Z,93.88
2023-04-15T20:01:18.110Z,94.05
2023-04-15T20:03:44.854Z,93.80
2023-04-15T20:06:11.691Z,93.75
2023-04-15T20:08:38.384Z,94.06
2023-04-15T20:11:04.930Z,93.83
2023-04-15T20:13:32.962Z,93.93
2023-04-15T20:15:59.550Z,93.88
2023-04-15T20:18:26.152Z,93.95
2023-04-15T20:20:52.690Z,94.13
2023-04-15T20:23:19.356Z,94.09
2023-04-15T20:25:45.963Z,93.75
2023-04-15T20:28:12.731Z,93.62
2023-04-15T20:30:40.776Z,93.34
2023-04-15T20:33:07.418Z,93.49
2023-04-15T20:35:34.195Z,93.88
2023-04-15T20:38:01.089Z,93.68
2023-04-15T20:40:27.900Z,93.86
2023-04-15T20:42:54.742Z,93.67
2023-04-15T20:45:21.483Z,93.71
2023-04-15T20:47:49.480Z,93.69
2023-04-15T20:50:16.233Z,93.78
2023-04-15T20:52:42.958Z,94.01
2023-04-15T20:55:09.926Z,93.58
2023-04-15T20:57:36.483Z,93.65
2023-04-15T21:00:03.793Z,93.56
2023-04-15T21:02:30.607Z,93.32
2023-04-15T21:04:58.937Z,93.54
2023-04-15T21:07:25.505Z,93.21
2023-04-15T21:09:52.133Z,93.46
2023-04-15T21:12:18.909Z,93.56
2023-04-15T21:14:45.543Z,93.81
2023-04-15T21:17:12.185Z,93.37
2023-04-15T21:19:38.906Z,93.74
2023-04-15T21:22:06.882Z,93.39
2023-04-15T21:24:33.525Z,93.47
2023-04-15T21:27:00.155Z,93.50
2023-04-15T21:29:26.743Z,93.18
2023-04-15T21:31:53.477Z,93.20
2023-04-15T21:34:20.250Z,93.45
2023-04-15T21:36:46.871Z,93.56
2023-04-15T21:39:14.842Z,93.36
2023-04-15T21:41:41.546Z,93.46
2023-04-15T21:44:08.306Z,93.41
2023-04-15T21:46:36.173Z,93.54
2023-04-15T21:49:03.378Z,93.31
2023-04-15T21:51:30.190Z,93.69
2023-04-15T21:53:56.780Z,93.26
2023-04-15T21:56:24.974Z,93.59
2023-04-15T21:58:56.169Z,93.72
2023-04-15T22:01:22.830Z,93.39
2023-04-15T22:03:49.627Z,93.60
2023-04-15T22:06:16.680Z,93.85
2023-04-15T22:08:55.373Z,93.65
2023-04-15T22:11:31.257Z,93.54
2023-04-15T22:13:58.493Z,93.69
2023-04-15T22:16:25.804Z,93.87
2023-04-15T22:18:52.530Z,93.84
2023-04-15T22:21:19.222Z,94.02
2023-04-15T22:23:46.355Z,93.51
2023-04-15T22:26:12.998Z,93.80
2023-04-15T22:28:41.077Z,93.90
2023-04-15T22:31:07.862Z,93.90
2023-04-15T22:33:34.493Z,93.98
2023-04-15T22:36:01.142Z,93.82
2023-04-15T22:38:27.716Z,93.48
2023-04-15T22:40:54.406Z,93.58
2023-04-15T22:43:21.115Z,93.62
2023-04-15T22:45:50.682Z,93.48
2023-04-15T22:48:17.397Z,93.45
2023-04-15T22:50:44.160Z,93.39
2023-04-15T22:53:10.859Z,93.36
2023-04-15T22:55:37.395Z,93.67
2023-04-15T22:58:04.013Z,93.68
2023-04-15T23:00:30.673Z,93.28
2023-04-15T23:02:59.208Z,93.53
2023-04-15T23:05:25.960Z,93.74
2023-04-15T23:07:52.557Z,93.75
2023-04-15T23:10:19.165Z,93.58
2023-04-15T23:12:45.782Z,93.82
2023-04-15T23:15:12.378Z,93.88
2023-04-15T23:17:39.059Z,93.63
2023-04-15T23:20:07.916Z,93.56
2023-04-15T23:22:34.545Z,93.68
2023-04-15T23:25:01.095Z,93.62
2023-04-15T23:27:27.707Z,93.97
2023-04-15T23:29:54.288Z,93.83
2023-04-15T23:32:20.945Z,93.56
2023-04-15T23:34:47.574Z,93.53
2023-04-15T23:37:17.765Z,93.32
2023-04-15T23:39:44.652Z,93.83
2023-04-15T23:42:11.376Z,93.52
2023-04-15T23:44:37.981Z,93.47
2023-04-15T23:47:04.672Z,93.41
2023-04-15T23:49:31.341Z,93.49
2023-04-15T23:51:57.951Z,93.41
2023-04-15T23:54:25.944Z,93.45
2023-04-15T23:56:52.612Z,93.31
2023-04-15T23:59:19.223Z,93.06
